Time;durP1;ratioP1;P1;durP2;ratioP2;P2;SDS_P1;SDS_P2;PMS_P1;PMS_P2;Temp;Humidity;BMP_temperature;BMP_pressure;BME280_temperature;BME280_humidity;BME280_pressure;Samples;Min_cycle;Max_cycle;Signal;HPM_P1;HPM_P2
2023/09/19 00:00:57;;;;;;;2.17;0.90;;;22.70;99.90;;;;;;5077634;27;45146;-63
2023/09/19 00:03:24;;;;;;;4.68;1.27;;;22.70;99.90;;;;;;5083607;28;45102;-63
2023/09/19 00:05:52;;;;;;;4.93;1.40;;;22.70;99.90;;;;;;5077255;27;45241;-63
2023/09/19 00:08:23;;;;;;;3.78;1.10;;;22.70;99.90;;;;;;5084462;28;45217;-63
2023/09/19 00:10:50;;;;;;;2.83;1.30;;;22.70;99.90;;;;;;5083154;28;45191;-63
2023/09/19 00:13:16;;;;;;;6.68;1.30;;;22.70;99.90;;;;;;5077210;28;45183;-63
2023/09/19 00:15:48;;;;;;;3.35;1.00;;;22.70;99.90;;;;;;5087188;28;47418;-63
2023/09/19 00:18:15;;;;;;;4.55;1.20;;;22.70;99.90;;;;;;5086404;28;45158;-63
2023/09/19 00:20:42;;;;;;;4.90;1.10;;;22.60;99.90;;;;;;5081402;28;45143;-62
2023/09/19 00:23:11;;;;;;;2.17;0.98;;;22.70;99.90;;;;;;5082464;28;45343;-63
2023/09/19 00:25:38;;;;;;;3.92;1.23;;;22.70;99.90;;;;;;5083136;28;45223;-63
2023/09/19 00:28:07;;;;;;;4.13;1.15;;;22.70;99.90;;;;;;5086420;28;45170;-63
2023/09/19 00:30:34;;;;;;;2.40;1.00;;;22.70;99.90;;;;;;5085313;27;45235;-63
2023/09/19 00:33:01;;;;;;;3.88;1.20;;;22.70;99.90;;;;;;5085917;28;44703;-63
2023/09/19 00:35:28;;;;;;;4.55;1.10;;;22.70;99.90;;;;;;5084052;27;45166;-63
2023/09/19 00:37:55;;;;;;;3.88;1.23;;;22.70;99.90;;;;;;5086542;28;45910;-62
2023/09/19 00:40:23;;;;;;;4.53;1.10;;;22.70;99.90;;;;;;5083884;28;44692;-63
2023/09/19 00:42:50;;;;;;;3.67;1.20;;;22.70;99.90;;;;;;5076436;27;45343;-63
2023/09/19 00:45:20;;;;;;;4.75;1.40;;;22.70;99.90;;;;;;5075809;28;45378;-62
2023/09/19 00:47:49;;;;;;;3.42;1.30;;;22.70;99.90;;;;;;5079616;28;45208;-62
2023/09/19 00:50:19;;;;;;;3.10;1.20;;;22.70;99.90;;;;;;5075627;28;45190;-63
2023/09/19 00:52:49;;;;;;;4.55;1.35;;;22.70;99.90;;;;;;5078588;28;45086;-63
2023/09/19 00:55:19;;;;;;;5.93;1.02;;;22.70;99.90;;;;;;5073416;28;45443;-63
2023/09/19 00:57:49;;;;;;;2.65;1.10;;;22.70;99.90;;;;;;5080687;28;45185;-63
2023/09/19 01:00:19;;;;;;;4.85;1.00;;;22.70;99.90;;;;;;5081986;27;45081;-63
2023/09/19 01:02:47;;;;;;;2.53;1.23;;;22.70;99.90;;;;;;5081189;28;45272;-63
2023/09/19 01:05:14;;;;;;;2.03;1.08;;;22.70;99.90;;;;;;5084585;28;47943;-63
2023/09/19 01:07:41;;;;;;;2.20;1.00;;;22.70;99.90;;;;;;5084843;28;45071;-63
2023/09/19 01:10:11;;;;;;;3.38;0.90;;;22.70;99.90;;;;;;5076750;28;45069;-63
2023/09/19 01:12:49;;;;;;;1.75;0.80;;;22.70;99.90;;;;;;5082905;27;45319;-63
2023/09/19 01:15:25;;;;;;;3.67;1.10;;;22.70;99.90;;;;;;5076243;28;47014;-63
2023/09/19 01:17:58;;;;;;;4.28;1.23;;;22.70;99.90;;;;;;5084710;28;45293;-62
2023/09/19 01:20:38;;;;;;;2.95;1.33;;;22.70;99.90;;;;;;5084105;27;45130;-63
2023/09/19 01:23:14;;;;;;;3.92;1.23;;;22.70;99.90;;;;;;5080305;27;45150;-63
2023/09/19 01:26:08;;;;;;;2.08;0.98;;;22.70;99.90;;;;;;5067785;28;45312;-62
2023/09/19 01:28:47;;;;;;;2.70;1.10;;;22.70;99.90;;;;;;5074865;28;45175;-63
2023/09/19 01:31:15;;;;;;;4.07;1.20;;;22.70;99.90;;;;;;5078823;28;45162;-63
2023/09/19 01:33:59;;;;;;;3.28;1.10;;;22.70;99.90;;;;;;5078769;28;45087;-63
2023/09/19 01:36:27;;;;;;;4.63;1.40;;;22.70;99.90;;;;;;5077885;28;45417;-63
2023/09/19 01:38:55;;;;;;;2.45;0.95;;;22.70;99.90;;;;;;5083802;28;45209;-62
2023/09/19 01:41:29;;;;;;;1.90;0.98;;;22.70;99.90;;;;;;5078236;28;45241;-62
2023/09/19 01:43:57;;;;;;;3.53;1.33;;;22.70;99.90;;;;;;5075596;28;45147;-63
2023/09/19 01:46:30;;;;;;;2.05;0.98;;;22.70;99.90;;;;;;5073357;28;45161;-63
2023/09/19 01:49:06;;;;;;;2.35;0.80;;;22.70;99.90;;;;;;5081443;28;45643;-63
2023/09/19 01:51:38;;;;;;;3.50;1.08;;;22.70;99.90;;;;;;5073190;28;45190;-62
2023/09/19 01:54:13;;;;;;;4.45;1.20;;;22.70;99.90;;;;;;5077153;28;45230;-63
2023/09/19 01:56:46;;;;;;;2.00;0.77;;;22.70;99.90;;;;;;5077300;28;45435;-63
2023/09/19 01:59:17;;;;;;;3.15;1.20;;;22.70;99.90;;;;;;5078803;28;45171;-63
2023/09/19 02:01:46;;;;;;;4.18;0.98;;;22.70;99.90;;;;;;5084985;28;45210;-63
2023/09/19 02:04:13;;;;;;;2.22;1.10;;;22.70;99.90;;;;;;5077869;28;45330;-63
2023/09/19 02:06:42;;;;;;;3.78;1.10;;;22.70;99.80;;;;;;5083449;27;45317;-63
2023/09/19 02:09:08;;;;;;;2.75;1.05;;;22.70;99.80;;;;;;5083111;27;45279;-63
2023/09/19 02:11:36;;;;;;;4.15;1.30;;;22.70;99.80;;;;;;5083493;28;45373;-63
2023/09/19 02:14:04;;;;;;;2.08;1.08;;;22.70;99.80;;;;;;5072123;28;45159;-62
2023/09/19 02:16:31;;;;;;;3.60;0.98;;;22.70;99.80;;;;;;5082057;28;45279;-62
2023/09/19 02:19:00;;;;;;;2.97;1.17;;;22.70;99.80;;;;;;5075605;28;45133;-63
2023/09/19 02:21:29;;;;;;;3.05;1.10;;;22.70;99.80;;;;;;5082228;28;45169;-62
2023/09/19 02:23:56;;;;;;;2.10;1.00;;;22.70;99.70;;;;;;5078720;28;45354;-63
2023/09/19 02:26:23;;;;;;;4.30;1.10;;;22.70;99.70;;;;;;5080929;27;47250;-63
2023/09/19 02:28:50;;;;;;;3.05;1.17;;;22.70;99.70;;;;;;5082107;28;44626;-62
2023/09/19 02:31:17;;;;;;;2.58;1.00;;;22.70;99.60;;;;;;5081876;28;45031;-63
2023/09/19 02:33:46;;;;;;;1.58;0.77;;;22.70;99.60;;;;;;5077096;27;45235;-62
2023/09/19 02:36:16;;;;;;;2.95;1.08;;;22.70;99.60;;;;;;5075065;27;45472;-62
2023/09/19 02:38:43;;;;;;;2.80;1.08;;;22.70;99.50;;;;;;5081676;28;46392;-62
2023/09/19 02:41:10;;;;;;;4.55;1.30;;;22.70;99.50;;;;;;5078061;28;45389;-62
2023/09/19 02:43:37;;;;;;;5.47;1.23;;;22.60;99.60;;;;;;5085067;28;45123;-62
2023/09/19 02:46:04;;;;;;;3.80;1.48;;;22.70;99.50;;;;;;5073937;28;46350;-63
2023/09/19 02:48:32;;;;;;;2.97;1.10;;;22.60;99.50;;;;;;5080769;28;45181;-62
2023/09/19 02:50:59;;;;;;;2.15;0.90;;;22.60;99.60;;;;;;5077129;28;45102;-62
2023/09/19 02:53:27;;;;;;;3.95;1.00;;;22.70;99.60;;;;;;5071639;28;45248;-62
2023/09/19 02:55:54;;;;;;;2.63;0.80;;;22.60;99.50;;;;;;5075675;28;45439;-62
2023/09/19 02:58:21;;;;;;;2.75;1.02;;;22.60;99.40;;;;;;5083888;28;45134;-62
2023/09/19 03:00:49;;;;;;;3.47;1.08;;;22.60;99.40;;;;;;5083225;28;44701;-62
2023/09/19 03:03:16;;;;;;;3.92;1.00;;;22.60;99.30;;;;;;5079613;28;45242;-62
2023/09/19 03:05:46;;;;;;;2.33;0.93;;;22.60;99.20;;;;;;5076766;28;45423;-62
2023/09/19 03:08:14;;;;;;;4.10;1.00;;;22.60;99.20;;;;;;5083211;28;45245;-62
2023/09/19 03:10:42;;;;;;;1.88;0.93;;;22.70;99.20;;;;;;5076747;27;45142;-62
2023/09/19 03:13:10;;;;;;;1.90;0.90;;;22.60;99.10;;;;;;5074018;28;45269;-62
2023/09/19 03:15:38;;;;;;;3.85;1.10;;;22.60;99.10;;;;;;5078138;27;45439;-62
2023/09/19 03:18:05;;;;;;;2.97;1.10;;;22.60;99.00;;;;;;5079563;28;45145;-62
2023/09/19 03:20:32;;;;;;;3.53;1.02;;;22.60;99.00;;;;;;5085085;28;45153;-62
2023/09/19 03:23:00;;;;;;;2.55;1.20;;;22.60;99.00;;;;;;5082076;28;45287;-62
2023/09/19 03:25:28;;;;;;;3.33;1.17;;;22.60;98.90;;;;;;5080771;28;46306;-62
2023/09/19 03:27:57;;;;;;;2.65;0.98;;;22.60;98.90;;;;;;5083352;27;45193;-62
2023/09/19 03:30:24;;;;;;;4.10;1.00;;;22.60;98.80;;;;;;5073003;28;45317;-62
2023/09/19 03:32:51;;;;;;;2.17;0.90;;;22.60;98.80;;;;;;5072187;28;45115;-62
2023/09/19 03:35:19;;;;;;;3.85;0.90;;;22.70;98.80;;;;;;5074499;28;46295;-62
2023/09/19 03:37:46;;;;;;;2.63;1.00;;;22.60;98.70;;;;;;5077559;28;45154;-62
2023/09/19 03:40:12;;;;;;;4.05;1.10;;;22.70;98.70;;;;;;5081575;28;45094;-62
2023/09/19 03:42:39;;;;;;;3.08;1.00;;;22.60;98.60;;;;;;5081433;28;45039;-62
2023/09/19 03:45:11;;;;;;;1.75;1.00;;;22.60;98.50;;;;;;5071934;28;45256;-62
2023/09/19 03:47:38;;;;;;;3.85;1.05;;;22.60;98.50;;;;;;5078597;28;44707;-62
2023/09/19 03:50:08;;;;;;;4.20;1.20;;;22.60;98.40;;;;;;5080821;28;45233;-63
2023/09/19 03:52:35;;;;;;;4.30;1.30;;;22.60;98.40;;;;;;5071350;28;45233;-62
2023/09/19 03:55:02;;;;;;;2.70;1.10;;;22.60;98.40;;;;;;5077279;28;46962;-62
2023/09/19 03:57:29;;;;;;;3.10;0.95;;;22.60;98.30;;;;;;5079891;28;44689;-62
2023/09/19 03:59:56;;;;;;;2.88;1.17;;;22.60;98.20;;;;;;5072358;28;45091;-62
2023/09/19 04:02:24;;;;;;;2.75;1.23;;;22.60;98.20;;;;;;5077191;28;45349;-62
2023/09/19 04:04:51;;;;;;;3.85;1.17;;;22.60;98.20;;;;;;5081749;28;47199;-62
2023/09/19 04:07:22;;;;;;;2.33;1.10;;;22.60;98.10;;;;;;5074693;28;45248;-62
2023/09/19 04:09:58;;;;;;;3.50;1.10;;;22.60;98.10;;;;;;5058141;28;45251;-63
2023/09/19 04:16:24;;;;;;;2.38;0.95;;;22.60;98.00;;;;;;4943845;28;45204;-63
2023/09/19 04:19:06;;;;;;;2.63;0.77;;;22.60;97.90;;;;;;4935518;28;45230;-62
2023/09/19 04:22:17;;;;;;;4.47;1.40;;;22.60;98.00;;;;;;4939147;28;45246;-61
2023/09/19 04:25:10;;;;;;;2.97;1.10;;;22.60;97.80;;;;;;4949005;28;45201;-64
2023/09/19 04:27:40;;;;;;;3.38;1.13;;;22.60;97.80;;;;;;4948736;28;46177;-66
2023/09/19 04:33:36;;;;;;;3.63;1.40;;;22.60;97.70;;;;;;4929582;28;45194;-65
2023/09/19 04:36:08;;;;;;;3.40;0.93;;;22.60;97.60;;;;;;4951585;28;45165;-64
2023/09/19 04:39:13;;;;;;;2.30;1.10;;;22.70;97.60;;;;;;4948381;28;45958;-64
2023/09/19 04:41:41;;;;;;;2.33;1.05;;;22.60;97.50;;;;;;4948833;28;45274;-64
2023/09/19 04:44:19;;;;;;;4.20;1.15;;;22.60;97.50;;;;;;4948030;28;44956;-64
2023/09/19 04:46:52;;;;;;;4.95;1.13;;;22.70;97.50;;;;;;4962073;27;45047;-64
2023/09/19 04:49:28;;;;;;;2.40;0.95;;;22.60;97.50;;;;;;4946404;28;45072;-64
2023/09/19 04:55:34;;;;;;;2.00;1.00;;;22.70;97.20;;;;;;4933049;28;45478;-64
2023/09/19 04:58:17;;;;;;;2.38;1.00;;;22.70;97.10;;;;;;4949777;28;45276;-63
2023/09/19 05:01:15;;;;;;;3.55;1.08;;;22.70;97.20;;;;;;4971761;28;46311;-65
2023/09/19 05:04:13;;;;;;;3.50;1.10;;;22.70;97.20;;;;;;4945821;28;45142;-63
2023/09/19 05:06:50;;;;;;;2.70;1.15;;;22.60;97.20;;;;;;4953347;28;45254;-62
2023/09/19 05:09:43;;;;;;;3.30;1.40;;;22.60;97.20;;;;;;4950571;27;45376;-62
2023/09/19 05:12:37;;;;;;;2.47;1.05;;;22.60;97.20;;;;;;4958501;28;46351;-65
2023/09/19 05:15:16;;;;;;;5.22;1.48;;;22.60;97.20;;;;;;4955416;28;45417;-65
2023/09/19 05:18:03;;;;;;;3.50;0.90;;;22.60;97.20;;;;;;4945485;28;45200;-65
2023/09/19 05:20:54;;;;;;;3.10;1.02;;;22.60;97.20;;;;;;4964096;27;45070;-65
2023/09/19 05:23:23;;;;;;;3.65;1.15;;;22.60;97.10;;;;;;4955993;28;46520;-64
2023/09/19 05:25:59;;;;;;;7.85;1.63;;;22.50;96.90;;;;;;4939645;27;45321;-64
2023/09/19 05:28:35;;;;;;;5.32;1.35;;;22.50;96.80;;;;;;4958532;28;45324;-64
2023/09/19 05:32:13;;;;;;;4.70;1.45;;;22.50;96.60;;;;;;4952801;27;45207;-64
2023/09/19 05:35:01;;;;;;;4.97;1.63;;;22.60;96.40;;;;;;4954246;28;46284;-64
2023/09/19 05:37:34;;;;;;;7.40;1.23;;;22.60;96.40;;;;;;4948290;28;45316;-64
2023/09/19 05:41:08;;;;;;;4.65;0.93;;;22.50;96.30;;;;;;4958018;28;45449;-64
2023/09/19 05:43:37;;;;;;;6.13;1.35;;;22.50;96.10;;;;;;4960242;28;45033;-64
2023/09/19 05:46:29;;;;;;;3.53;1.25;;;22.50;96.00;;;;;;4955290;28;46579;-64
2023/09/19 05:49:12;;;;;;;6.22;1.20;;;22.50;96.00;;;;;;4950121;27;45140;-64
2023/09/19 05:51:39;;;;;;;5.43;1.45;;;22.50;96.00;;;;;;4933544;28;45081;-64
2023/09/19 05:54:19;;;;;;;3.95;0.98;;;22.50;96.00;;;;;;4954137;27;44828;-64
2023/09/19 05:56:54;;;;;;;5.00;1.30;;;22.50;95.90;;;;;;4952911;28;46153;-64
2023/09/19 05:59:25;;;;;;;4.07;1.33;;;22.50;96.00;;;;;;4943728;28;45035;-63
2023/09/19 06:01:53;;;;;;;3.58;1.30;;;22.50;95.90;;;;;;4954690;28;45006;-64
2023/09/19 06:04:22;;;;;;;5.13;1.50;;;22.50;95.90;;;;;;4939641;28;45246;-64
2023/09/19 06:06:51;;;;;;;6.55;1.60;;;22.50;95.90;;;;;;4957108;27;45363;-63
2023/09/19 06:09:19;;;;;;;4.78;1.38;;;22.50;95.90;;;;;;4953784;28;44943;-63
2023/09/19 06:12:07;;;;;;;6.15;1.27;;;22.50;95.80;;;;;;4960594;27;45184;-63
2023/09/19 06:18:15;;;;;;;5.55;1.25;;;22.50;95.80;;;;;;4935033;28;45814;-63
2023/09/19 06:20:44;;;;;;;3.53;1.38;;;22.50;95.70;;;;;;4949639;28;44961;-63
2023/09/19 06:23:11;;;;;;;3.47;1.00;;;22.50;95.70;;;;;;4960724;28;45236;-63
2023/09/19 06:25:39;;;;;;;7.38;1.60;;;22.40;95.60;;;;;;4955312;27;45304;-63
2023/09/19 06:28:33;;;;;;;4.35;1.55;;;22.40;95.60;;;;;;4959479;27;46512;-63
2023/09/19 06:31:04;;;;;;;4.15;1.40;;;22.40;95.60;;;;;;4942145;28;44883;-63
2023/09/19 06:36:41;;;;;;;3.22;1.30;;;22.40;95.60;;;;;;4933685;28;45152;-63
2023/09/19 06:39:10;;;;;;;5.45;1.88;;;22.40;95.50;;;;;;4962051;28;45709;-63
2023/09/19 06:41:39;;;;;;;4.47;1.15;;;22.50;95.60;;;;;;4953208;27;45212;-63
2023/09/19 06:44:21;;;;;;;3.53;1.17;;;22.40;95.40;;;;;;4952935;28;45058;-63
2023/09/19 06:46:51;;;;;;;4.82;1.30;;;22.40;95.40;;;;;;4948029;28;45193;-63
2023/09/19 06:49:47;;;;;;;4.20;1.58;;;22.50;95.40;;;;;;4943589;28;45336;-63
2023/09/19 06:52:27;;;;;;;6.10;1.73;;;22.50;95.40;;;;;;4961471;27;45197;-63
2023/09/19 06:54:54;;;;;;;2.60;1.27;;;22.50;95.20;;;;;;4941893;28;45261;-63
2023/09/19 06:57:34;;;;;;;7.85;1.55;;;22.50;95.20;;;;;;4951067;28;45328;-63
2023/09/19 07:00:23;;;;;;;2.83;1.15;;;22.50;95.10;;;;;;4948391;27;46043;-63
2023/09/19 07:03:45;;;;;;;4.55;1.40;;;22.50;95.00;;;;;;4946602;28;45353;-63
2023/09/19 07:06:21;;;;;;;6.45;1.40;;;22.50;95.00;;;;;;4950885;28;45297;-63
2023/09/19 07:09:04;;;;;;;7.55;1.83;;;22.50;95.00;;;;;;4944482;27;45030;-63
2023/09/19 07:11:35;;;;;;;5.57;1.40;;;22.50;95.00;;;;;;4934911;28;46366;-63
2023/09/19 07:14:06;;;;;;;3.08;1.20;;;22.50;95.00;;;;;;4954823;27;44884;-63
2023/09/19 07:16:59;;;;;;;4.40;1.52;;;22.50;95.00;;;;;;4964810;27;45567;-63
2023/09/19 07:19:31;;;;;;;5.72;1.35;;;22.50;95.00;;;;;;4948811;28;45355;-63
2023/09/19 07:22:13;;;;;;;5.10;1.35;;;22.50;95.00;;;;;;4945814;27;45774;-63
2023/09/19 07:24:48;;;;;;;4.60;1.48;;;22.50;95.00;;;;;;4940001;28;45326;-63
2023/09/19 07:27:25;;;;;;;3.97;1.40;;;22.50;95.00;;;;;;4946200;28;45166;-63
2023/09/19 07:30:00;;;;;;;3.95;1.50;;;22.50;95.00;;;;;;4939596;28;44803;-63
2023/09/19 07:32:27;;;;;;;5.28;1.20;;;22.50;94.90;;;;;;4936891;28;47195;-63
2023/09/19 07:38:21;;;;;;;4.55;1.30;;;22.50;94.80;;;;;;4938737;28;45190;-63
2023/09/19 07:41:34;;;;;;;2.80;1.20;;;22.50;94.80;;;;;;4943835;27;45436;-63
2023/09/19 07:44:00;;;;;;;4.70;1.42;;;22.50;94.80;;;;;;4944101;28;45153;-63
2023/09/19 07:46:27;;;;;;;4.32;1.05;;;22.50;95.30;;;;;;4949068;27;45120;-63
2023/09/19 07:49:17;;;;;;;3.03;1.10;;;22.50;94.80;;;;;;4962909;28;45324;-63
2023/09/19 07:51:46;;;;;;;5.68;1.40;;;22.50;94.80;;;;;;4935878;28;45062;-63
2023/09/19 07:54:18;;;;;;;4.32;1.50;;;22.50;94.80;;;;;;4942210;28;48240;-63
2023/09/19 07:57:01;;;;;;;3.92;1.05;;;22.50;94.80;;;;;;4947409;28;45131;-63
2023/09/19 07:59:54;;;;;;;3.35;1.38;;;22.50;94.80;;;;;;4943386;27;45067;-63
2023/09/19 08:02:21;;;;;;;4.50;1.25;;;22.50;94.80;;;;;;4945703;27;45146;-63
2023/09/19 08:04:49;;;;;;;7.72;1.55;;;22.50;94.90;;;;;;4945782;28;46581;-63
2023/09/19 08:07:56;;;;;;;6.80;1.30;;;22.40;94.80;;;;;;4956871;27;45339;-63
2023/09/19 08:10:45;;;;;;;2.83;1.00;;;22.40;94.30;;;;;;4950044;28;45057;-63
2023/09/19 08:13:48;;;;;;;4.72;1.45;;;22.30;93.90;;;;;;4955438;28;45541;-63
2023/09/19 08:16:30;;;;;;;4.82;1.33;;;22.30;93.60;;;;;;4951166;27;47485;-63
2023/09/19 08:18:57;;;;;;;5.55;1.48;;;22.30;93.50;;;;;;4955096;28;45107;-63
2023/09/19 08:21:27;;;;;;;3.92;1.38;;;22.30;93.40;;;;;;4954269;27;45360;-65
2023/09/19 08:24:06;;;;;;;5.13;1.48;;;22.30;93.20;;;;;;4961016;27;45207;-65
2023/09/19 08:26:39;;;;;;;5.05;1.17;;;22.30;93.00;;;;;;4937977;28;45457;-64
2023/09/19 08:29:15;;;;;;;4.32;1.50;;;22.40;93.00;;;;;;4945494;27;44869;-64
2023/09/19 08:34:50;;;;;;;6.15;1.17;;;22.40;93.20;;;;;;4948673;28;45002;-64
2023/09/19 08:37:48;;;;;;;3.13;1.02;;;22.50;93.40;;;;;;4950528;27;46235;-64
2023/09/19 08:40:50;;;;;;;3.63;1.30;;;22.50;93.50;;;;;;4968681;27;44782;-64
2023/09/19 08:43:38;;;;;;;4.80;1.60;;;22.50;93.70;;;;;;4953572;27;44834;-63
2023/09/19 08:46:39;;;;;;;3.92;1.10;;;22.50;93.70;;;;;;4956386;27;45245;-63
2023/09/19 08:49:34;;;;;;;3.22;1.33;;;22.50;93.80;;;;;;4948568;27;46894;-63
2023/09/19 08:52:42;;;;;;;2.83;1.00;;;22.50;93.90;;;;;;4956381;28;45224;-63
2023/09/19 08:55:30;;;;;;;2.70;1.02;;;22.60;94.00;;;;;;4953534;28;45314;-63
2023/09/19 08:58:13;;;;;;;4.03;1.10;;;22.50;94.10;;;;;;4949952;28;45203;-65
2023/09/19 09:00:49;;;;;;;4.07;1.00;;;22.60;94.20;;;;;;4942574;28;45159;-64
2023/09/19 09:03:22;;;;;;;3.65;1.10;;;22.60;94.20;;;;;;4961275;27;45387;-64
2023/09/19 09:06:21;;;;;;;3.88;1.13;;;22.60;94.30;;;;;;4944090;28;45094;-64
2023/09/19 09:09:04;;;;;;;4.13;1.23;;;22.60;94.50;;;;;;4945320;28;45113;-64
2023/09/19 09:11:34;;;;;;;4.00;1.15;;;22.60;94.40;;;;;;4960194;28;47587;-64
2023/09/19 09:14:22;;;;;;;4.07;0.98;;;22.60;94.40;;;;;;4950463;27;45166;-63
2023/09/19 09:16:59;;;;;;;4.20;1.17;;;22.60;94.40;;;;;;4944734;28;45191;-63
2023/09/19 09:19:56;;;;;;;3.13;0.82;;;22.60;94.40;;;;;;4953897;28;45240;-63
2023/09/19 09:26:14;;;;;;;2.63;1.17;;;22.70;94.60;;;;;;4928167;28;45054;-63
2023/09/19 09:28:59;;;;;;;3.58;1.17;;;22.60;94.40;;;;;;4949372;28;45193;-63
2023/09/19 09:31:57;;;;;;;4.25;1.33;;;22.70;94.50;;;;;;4966540;28;45128;-63
2023/09/19 09:34:44;;;;;;;2.80;1.08;;;22.70;94.50;;;;;;4949812;28;45516;-63
2023/09/19 09:37:29;;;;;;;4.00;1.25;;;22.70;94.60;;;;;;4950785;27;45236;-63
2023/09/19 09:40:17;;;;;;;4.10;1.02;;;22.70;94.60;;;;;;4951391;28;44822;-63
2023/09/19 09:43:04;;;;;;;2.10;0.82;;;22.70;94.60;;;;;;4943876;27;45088;-63
2023/09/19 09:45:48;;;;;;;3.63;1.10;;;22.70;94.60;;;;;;4955919;27;47120;-63
2023/09/19 09:51:42;;;;;;;2.67;0.93;;;22.70;94.60;;;;;;4944250;28;45126;-63
2023/09/19 09:54:20;;;;;;;3.17;1.00;;;22.70;94.60;;;;;;4940632;28;45376;-63
2023/09/19 09:56:58;;;;;;;2.65;1.00;;;22.70;94.50;;;;;;4955217;28;45592;-63
2023/09/19 09:59:55;;;;;;;2.20;1.00;;;22.70;94.60;;;;;;4947752;28;45360;-63
2023/09/19 10:03:12;;;;;;;2.22;1.00;;;22.70;94.70;;;;;;4952015;28;45217;-63
2023/09/19 10:05:58;;;;;;;3.38;1.00;;;22.70;94.70;;;;;;4947402;28;45230;-63
2023/09/19 10:22:42;;;;;;;1.80;0.98;;;22.70;95.00;;;;;;4924391;28;45965;-63
2023/09/19 10:25:30;;;;;;;2.95;0.95;;;22.70;95.00;;;;;;4953786;28;45133;-63
2023/09/19 10:28:13;;;;;;;2.92;1.02;;;22.70;95.00;;;;;;4957540;27;45152;-63
2023/09/19 10:30:43;;;;;;;3.10;0.90;;;22.70;94.90;;;;;;4949744;27;45188;-63
2023/09/19 10:33:38;;;;;;;3.95;1.00;;;22.70;94.90;;;;;;4951186;28;46351;-62
2023/09/19 10:36:25;;;;;;;3.45;1.02;;;22.70;95.00;;;;;;4952494;28;45187;-63
2023/09/19 10:39:31;;;;;;;3.50;1.10;;;22.80;95.10;;;;;;4941818;28;45449;-63
2023/09/19 10:42:05;;;;;;;1.10;0.60;;;22.80;95.10;;;;;;4951222;28;45330;-63
2023/09/19 10:44:53;;;;;;;2.03;0.70;;;22.80;95.10;;;;;;4947009;27;45416;-63
2023/09/19 10:47:37;;;;;;;1.58;0.77;;;22.80;95.10;;;;;;4943000;27;45235;-62
2023/09/19 10:53:17;;;;;;;1.77;0.80;;;22.80;95.10;;;;;;4937055;28;44901;-63
2023/09/19 10:56:02;;;;;;;1.67;0.80;;;22.80;95.10;;;;;;4943246;28;46122;-63
2023/09/19 10:58:51;;;;;;;4.13;0.93;;;22.80;95.10;;;;;;4952240;27;45380;-62
2023/09/19 11:02:12;;;;;;;2.92;1.10;;;22.80;95.10;;;;;;4945313;28;45409;-60
2023/09/19 11:05:29;;;;;;;3.60;1.02;;;22.80;95.00;;;;;;4945118;27;44963;-63
2023/09/19 11:08:03;;;;;;;1.92;0.98;;;22.80;95.00;;;;;;4947750;28;48112;-65
2023/09/19 11:10:46;;;;;;;3.28;1.00;;;22.80;94.90;;;;;;4945033;28;45309;-64
2023/09/19 11:13:30;;;;;;;2.55;1.08;;;22.80;94.80;;;;;;4946574;28;45536;-64
2023/09/19 11:16:09;;;;;;;1.75;0.77;;;22.80;94.80;;;;;;4946665;27;45066;-64
2023/09/19 11:19:18;;;;;;;2.00;0.80;;;22.80;95.00;;;;;;4948402;27;46784;-64
2023/09/19 11:21:58;;;;;;;3.50;1.02;;;22.80;94.90;;;;;;4950096;28;45358;-63
2023/09/19 11:24:45;;;;;;;5.03;1.30;;;22.80;94.80;;;;;;4946190;28;45222;-63
2023/09/19 11:27:18;;;;;;;5.32;1.02;;;22.80;94.80;;;;;;4946699;28;44964;-63
2023/09/19 11:29:48;;;;;;;3.63;0.95;;;22.80;94.80;;;;;;4956844;28;45186;-63
2023/09/19 11:32:17;;;;;;;2.97;1.00;;;22.80;95.10;;;;;;4951836;28;44843;-63
2023/09/19 11:39:08;;;;;;;3.28;1.05;;;22.80;94.70;;;;;;4949341;28;45245;-63
2023/09/19 11:41:56;;;;;;;1.45;1.00;;;22.80;94.60;;;;;;4945448;28;47770;-63
2023/09/19 11:44:46;;;;;;;3.00;0.95;;;22.80;94.50;;;;;;4944883;28;45129;-63
2023/09/19 11:47:35;;;;;;;2.47;1.02;;;22.80;94.50;;;;;;4957491;28;45169;-63
2023/09/19 11:50:03;;;;;;;1.52;0.80;;;22.80;94.50;;;;;;4956358;28;45049;-63
2023/09/19 11:52:51;;;;;;;1.92;1.08;;;22.80;94.50;;;;;;4951463;28;47263;-63
2023/09/19 11:55:21;;;;;;;2.58;1.08;;;22.80;94.50;;;;;;4955280;27;45121;-63
2023/09/19 11:58:16;;;;;;;7.28;1.33;;;22.80;94.40;;;;;;4944723;28;44986;-63
2023/09/19 12:01:08;;;;;;;2.60;1.08;;;22.80;94.30;;;;;;4938523;28;45231;-63
2023/09/19 12:04:06;;;;;;;1.92;0.80;;;22.80;94.30;;;;;;4962482;27;45658;-61
2023/09/19 12:07:02;;;;;;;2.42;0.98;;;22.90;94.30;;;;;;4954780;28;45136;-61
2023/09/19 12:09:44;;;;;;;1.73;0.82;;;22.80;94.30;;;;;;4947057;28;45441;-60
2023/09/19 12:12:36;;;;;;;1.88;1.00;;;22.90;94.20;;;;;;4963620;28;45183;-63
2023/09/19 12:15:12;;;;;;;3.83;1.00;;;22.90;94.20;;;;;;4949361;27;46340;-64
2023/09/19 12:21:26;;;;;;;3.55;1.15;;;22.90;94.10;;;;;;4913174;27;44815;-64
2023/09/19 12:24:38;;;;;;;2.03;0.90;;;22.90;94.00;;;;;;4954255;28;45227;-61
2023/09/19 12:27:46;;;;;;;2.45;1.05;;;22.90;94.00;;;;;;4946796;28;45101;-62
2023/09/19 12:30:41;;;;;;;2.85;1.00;;;22.90;94.30;;;;;;4935171;28;45086;-64
2023/09/19 12:33:30;;;;;;;1.60;0.80;;;22.90;94.20;;;;;;4940353;28;45382;-64
2023/09/19 12:36:29;;;;;;;3.50;0.95;;;22.90;94.20;;;;;;4963633;28;45579;-64
2023/09/19 12:39:25;;;;;;;1.55;0.90;;;22.90;94.20;;;;;;4947554;28;46375;-64
2023/09/19 12:42:28;;;;;;;2.05;0.98;;;22.90;94.20;;;;;;4972249;28;45198;-64
2023/09/19 12:48:29;;;;;;;2.38;1.08;;;22.90;93.90;;;;;;4930900;28;45437;-63
2023/09/19 12:51:41;;;;;;;1.42;0.80;;;22.90;93.90;;;;;;4946606;28;45312;-63
2023/09/19 12:54:25;;;;;;;2.53;1.00;;;22.90;94.20;;;;;;4934697;28;44793;-61
2023/09/19 12:56:55;;;;;;;1.55;0.70;;;22.90;94.10;;;;;;4944243;28;44884;-63
2023/09/19 12:59:42;;;;;;;1.25;0.63;;;22.90;93.60;;;;;;4949203;28;45302;-60
2023/09/19 13:02:32;;;;;;;2.22;1.08;;;23.00;93.50;;;;;;4942905;28;46125;-61
2023/09/19 13:06:07;;;;;;;1.73;0.88;;;23.00;93.40;;;;;;4940398;28;46003;-64
2023/09/19 13:08:38;;;;;;;2.50;0.90;;;23.00;93.40;;;;;;4948885;28;45251;-60
2023/09/19 13:11:17;;;;;;;2.85;0.93;;;23.00;93.40;;;;;;4947244;27;45058;-62
2023/09/19 13:14:27;;;;;;;1.77;0.70;;;23.00;93.20;;;;;;4954132;28;47488;-64
2023/09/19 13:17:15;;;;;;;3.65;0.98;;;23.00;93.10;;;;;;4949428;27;45166;-63
2023/09/19 13:19:52;;;;;;;1.13;0.73;;;23.00;93.10;;;;;;4936861;28;45161;-64
2023/09/19 13:25:24;;;;;;;2.20;0.80;;;23.10;93.00;;;;;;4946482;28;45331;-60
2023/09/19 13:28:11;;;;;;;1.83;0.80;;;23.00;92.80;;;;;;4952057;28;45379;-62
2023/09/19 13:34:29;;;;;;;1.38;0.60;;;23.10;92.60;;;;;;4940442;28;45239;-64
2023/09/19 13:37:10;;;;;;;2.00;0.70;;;23.00;92.60;;;;;;4958645;28;45243;-64
2023/09/19 13:42:36;;;;;;;0.95;0.70;;;23.00;92.50;;;;;;4937516;28;45220;-64
2023/09/19 13:45:30;;;;;;;1.65;0.80;;;23.00;92.70;;;;;;4955321;28;44811;-64
2023/09/19 13:48:21;;;;;;;1.60;0.80;;;23.00;93.30;;;;;;4957071;28;46582;-64
2023/09/19 13:51:50;;;;;;;2.50;0.85;;;23.00;93.10;;;;;;4951406;28;45382;-64
2023/09/19 13:54:32;;;;;;;2.65;0.70;;;23.00;93.40;;;;;;4951277;27;44896;-64
2023/09/19 13:57:04;;;;;;;3.03;0.70;;;23.00;93.20;;;;;;4957982;27;45090;-64
2023/09/19 13:59:54;;;;;;;0.95;0.70;;;23.00;93.30;;;;;;4957465;27;46242;-64
2023/09/19 14:02:22;;;;;;;1.63;0.80;;;23.00;93.40;;;;;;4940357;28;45411;-60
2023/09/19 14:05:16;;;;;;;1.75;0.70;;;23.00;93.40;;;;;;4943302;28;45233;-60
2023/09/19 14:07:54;;;;;;;1.63;0.80;;;23.00;93.30;;;;;;4937114;28;45254;-63
2023/09/19 14:10:25;;;;;;;3.65;0.70;;;22.90;93.40;;;;;;4935186;28;45476;-62
2023/09/19 14:12:54;;;;;;;1.65;0.88;;;22.90;93.50;;;;;;4939600;27;45267;-63
2023/09/19 14:15:29;;;;;;;1.25;0.52;;;23.00;93.40;;;;;;4948610;28;45310;-64
2023/09/19 14:18:22;;;;;;;0.75;0.50;;;22.90;93.30;;;;;;4932699;27;45390;-64
2023/09/19 14:21:04;;;;;;;1.80;0.55;;;22.90;93.30;;;;;;4961129;28;46385;-64
2023/09/19 14:23:36;;;;;;;2.22;0.70;;;22.90;93.30;;;;;;4945124;28;45111;-64
2023/09/19 14:26:05;;;;;;;1.52;0.75;;;22.90;93.30;;;;;;4945696;28;45347;-64
2023/09/19 14:28:57;;;;;;;1.67;0.68;;;23.00;93.30;;;;;;4970304;28;45121;-63
2023/09/19 14:31:25;;;;;;;2.40;0.70;;;22.90;93.20;;;;;;4945674;28;46282;-64
2023/09/19 14:37:08;;;;;;;1.40;0.60;;;22.90;93.20;;;;;;4946436;28;45196;-64
2023/09/19 14:39:44;;;;;;;3.28;0.80;;;22.90;93.30;;;;;;4946901;28;45369;-64
2023/09/19 14:42:24;;;;;;;1.27;0.68;;;22.90;93.20;;;;;;4946670;28;45378;-64
2023/09/19 14:44:52;;;;;;;2.58;0.73;;;22.90;93.20;;;;;;4948287;28;45304;-63
2023/09/19 14:47:18;;;;;;;1.80;0.90;;;22.90;93.30;;;;;;4950717;28;44995;-63
2023/09/19 14:50:07;;;;;;;0.73;0.50;;;22.90;93.30;;;;;;4959082;27;45088;-61
2023/09/19 14:52:36;;;;;;;1.48;0.63;;;22.90;93.30;;;;;;4951529;28;47225;-62
2023/09/19 14:55:09;;;;;;;0.80;0.55;;;22.90;93.40;;;;;;4952976;28;45587;-64
2023/09/19 14:57:43;;;;;;;2.88;0.68;;;22.90;93.30;;;;;;4941824;28;45185;-64
2023/09/19 15:00:12;;;;;;;4.97;1.05;;;22.90;93.30;;;;;;5018702;28;45062;-64